createdAt,value
2018-10-16T00:00:50.228Z,0.00
2018-10-16T00:01:50.180Z,0.00
2018-10-16T00:02:50.174Z,0.00
2018-10-16T00:03:50.130Z,0.00
2018-10-16T00:04:50.066Z,0.00
2018-10-16T00:05:50.034Z,0.00
2018-10-16T00:06:49.996Z,0.00
2018-10-16T00:07:49.957Z,0.00
2018-10-16T00:08:49.914Z,0.00
2018-10-16T00:09:49.885Z,0.00
2018-10-16T00:10:49.848Z,0.00
2018-10-16T00:11:49.797Z,0.00
2018-10-16T00:12:49.759Z,0.00
2018-10-16T00:13:49.723Z,0.00
2018-10-16T00:14:49.680Z,0.00
2018-10-16T00:15:49.664Z,0.00
2018-10-16T00:16:49.605Z,0.00
2018-10-16T00:17:49.564Z,0.00
2018-10-16T00:18:49.521Z,0.00
2018-10-16T00:19:49.493Z,0.00
2018-10-16T00:20:49.473Z,0.00
2018-10-16T00:21:49.423Z,0.00
2018-10-16T00:22:49.377Z,0.00
2018-10-16T00:23:49.340Z,0.00
2018-10-16T00:24:49.303Z,0.00
2018-10-16T00:25:49.269Z,0.00
2018-10-16T00:26:49.233Z,0.00
2018-10-16T00:27:49.191Z,0.00
2018-10-16T00:28:49.156Z,0.00
2018-10-16T00:29:49.104Z,0.00
2018-10-16T00:30:49.057Z,0.00
2018-10-16T00:31:49.025Z,0.00
2018-10-16T00:32:49.045Z,0.00
2018-10-16T00:33:48.953Z,0.00
2018-10-16T00:34:48.916Z,0.00
2018-10-16T00:35:48.871Z,0.00
2018-10-16T00:36:48.849Z,0.00
2018-10-16T00:37:48.802Z,0.00
2018-10-16T00:38:48.751Z,0.00
2018-10-16T00:39:48.717Z,0.00
2018-10-16T00:40:48.686Z,0.00
2018-10-16T00:41:48.629Z,0.00
2018-10-16T00:42:48.599Z,0.00
2018-10-16T00:43:48.563Z,0.00
2018-10-16T00:44:48.517Z,0.00
2018-10-16T00:45:48.474Z,0.00
2018-10-16T00:46:48.438Z,0.00
2018-10-16T00:47:48.412Z,0.00
2018-10-16T00:48:48.366Z,0.00
2018-10-16T00:49:48.329Z,0.00
2018-10-16T00:50:48.278Z,0.00
2018-10-16T00:51:48.234Z,0.00
2018-10-16T00:52:48.206Z,0.00
2018-10-16T00:53:48.177Z,0.00
2018-10-16T00:54:48.149Z,0.00
2018-10-16T00:55:48.113Z,0.00
2018-10-16T00:56:48.045Z,0.00
2018-10-16T00:57:48.027Z,0.00
2018-10-16T00:58:47.970Z,0.00
2018-10-16T00:59:47.930Z,0.00
2018-10-16T01:00:47.901Z,0.00
2018-10-16T01:01:47.879Z,0.00
2018-10-16T01:02:47.815Z,0.00
2018-10-16T01:03:47.763Z,0.00
2018-10-16T01:04:47.745Z,0.00
2018-10-16T01:05:47.698Z,0.00
2018-10-16T01:06:47.657Z,0.00
2018-10-16T01:07:47.614Z,0.00
2018-10-16T01:08:47.589Z,0.00
2018-10-16T01:09:47.528Z,0.00
2018-10-16T01:10:47.492Z,0.00
2018-10-16T01:11:47.455Z,0.00
2018-10-16T01:12:47.419Z,0.00
2018-10-16T01:13:47.374Z,0.00
2018-10-16T01:14:47.335Z,0.00
2018-10-16T01:15:47.308Z,0.00
2018-10-16T01:16:47.268Z,0.00
2018-10-16T01:17:47.229Z,0.00
2018-10-16T01:18:47.189Z,0.00
2018-10-16T01:19:47.149Z,0.00
2018-10-16T01:20:47.102Z,0.00
2018-10-16T01:21:47.071Z,0.00
2018-10-16T01:22:47.037Z,0.00
2018-10-16T01:23:47.004Z,0.00
2018-10-16T01:24:46.935Z,0.00
2018-10-16T01:25:46.894Z,0.00
2018-10-16T01:26:46.872Z,0.00
2018-10-16T01:27:46.837Z,0.00
2018-10-16T01:28:46.783Z,0.00
2018-10-16T01:29:46.779Z,0.00
2018-10-16T01:30:46.728Z,0.00
2018-10-16T01:31:46.661Z,0.00
2018-10-16T01:32:46.635Z,0.00
2018-10-16T01:33:46.606Z,0.00
2018-10-16T01:34:46.553Z,0.00
2018-10-16T01:35:46.518Z,0.00
2018-10-16T01:36:46.490Z,0.00
2018-10-16T01:37:46.433Z,0.00
2018-10-16T01:38:46.403Z,0.00
2018-10-16T01:39:46.361Z,0.00
2018-10-16T01:40:46.325Z,0.00
2018-10-16T01:41:46.286Z,0.00
2018-10-16T01:42:46.235Z,0.00
2018-10-16T01:43:46.202Z,0.00
2018-10-16T01:44:46.161Z,0.00
2018-10-16T01:45:46.116Z,0.00
2018-10-16T01:46:46.076Z,0.00
2018-10-16T01:47:46.044Z,0.00
2018-10-16T01:48:46.028Z,0.00
2018-10-16T01:49:45.953Z,0.00
2018-10-16T01:50:45.925Z,0.00
2018-10-16T01:51:45.874Z,0.00
2018-10-16T01:52:45.862Z,0.00
2018-10-16T01:53:45.806Z,0.00
2018-10-16T01:54:45.768Z,0.00
2018-10-16T01:55:45.741Z,0.00
2018-10-16T01:56:45.688Z,0.00
2018-10-16T01:57:45.672Z,0.00
2018-10-16T01:58:45.620Z,0.00
2018-10-16T01:59:45.565Z,0.00
2018-10-16T02:00:45.553Z,0.00
2018-10-16T02:01:45.501Z,0.00
2018-10-16T02:02:45.571Z,0.00
2018-10-16T02:03:45.408Z,0.00
2018-10-16T02:04:45.387Z,0.00
2018-10-16T02:05:45.349Z,0.00
2018-10-16T02:06:45.306Z,0.00
2018-10-16T02:07:45.259Z,0.00
2018-10-16T02:08:45.226Z,0.00
2018-10-16T02:09:45.176Z,0.00
2018-10-16T02:10:45.156Z,0.00
2018-10-16T02:11:45.105Z,0.00
2018-10-16T02:12:45.092Z,0.00
2018-10-16T02:13:45.010Z,0.00
2018-10-16T02:14:45.027Z,0.00
2018-10-16T02:15:44.962Z,0.00
2018-10-16T02:16:44.886Z,0.00
2018-10-16T02:17:44.857Z,0.00
2018-10-16T02:18:44.828Z,0.00
2018-10-16T02:19:44.775Z,0.00
2018-10-16T02:20:44.750Z,0.00
2018-10-16T02:21:44.715Z,0.00
2018-10-16T02:22:44.658Z,0.00
2018-10-16T02:23:44.652Z,0.00
2018-10-16T02:24:44.577Z,0.00
2018-10-16T02:25:44.539Z,0.00
2018-10-16T02:26:44.524Z,0.00
2018-10-16T02:27:44.490Z,0.00
2018-10-16T02:28:44.424Z,0.00
2018-10-16T02:29:44.403Z,0.00
2018-10-16T02:30:44.346Z,0.00
2018-10-16T02:31:44.308Z,0.00
2018-10-16T02:32:44.275Z,0.00
2018-10-16T02:33:44.248Z,0.00
2018-10-16T02:34:44.182Z,0.00
2018-10-16T02:35:44.142Z,0.00
2018-10-16T02:36:44.101Z,0.00
2018-10-16T02:37:44.076Z,0.00
2018-10-16T02:38:44.022Z,0.00
2018-10-16T02:39:43.986Z,0.00
2018-10-16T02:40:43.963Z,0.00
2018-10-16T02:41:43.901Z,0.00
2018-10-16T02:42:43.869Z,0.00
2018-10-16T02:43:43.819Z,0.00
2018-10-16T02:44:43.799Z,0.00
2018-10-16T02:45:43.749Z,0.00
2018-10-16T02:46:43.700Z,0.00
2018-10-16T02:47:43.669Z,0.00
2018-10-16T02:48:43.622Z,0.00
2018-10-16T02:49:43.589Z,0.00
2018-10-16T02:50:43.537Z,0.00
2018-10-16T02:51:44.127Z,0.00
2018-10-16T02:52:43.468Z,0.00
2018-10-16T02:53:43.449Z,0.00
2018-10-16T02:54:43.394Z,0.00
2018-10-16T02:55:43.345Z,0.00
2018-10-16T02:56:43.323Z,0.00
2018-10-16T02:57:43.295Z,0.00
2018-10-16T02:58:43.226Z,0.00
2018-10-16T02:59:43.200Z,0.00
2018-10-16T03:00:43.159Z,0.00
2018-10-16T03:01:43.098Z,0.00
2018-10-16T03:02:43.067Z,0.00
2018-10-16T03:03:43.015Z,0.00
2018-10-16T03:04:42.981Z,0.00
2018-10-16T03:05:42.964Z,0.00
2018-10-16T03:06:42.913Z,0.00
2018-10-16T03:07:42.909Z,0.00
2018-10-16T03:08:42.844Z,0.00
2018-10-16T03:09:42.845Z,0.00
2018-10-16T03:10:42.799Z,0.00
2018-10-16T03:11:42.723Z,0.00
2018-10-16T03:12:42.693Z,0.00
2018-10-16T03:13:42.635Z,0.00
2018-10-16T03:14:42.588Z,0.00
2018-10-16T03:15:42.555Z,0.00
2018-10-16T03:16:42.512Z,0.00
2018-10-16T03:17:42.484Z,0.00
2018-10-16T03:18:42.423Z,0.00
2018-10-16T03:19:42.412Z,0.00
2018-10-16T03:20:42.378Z,0.00
2018-10-16T03:21:42.321Z,0.00
2018-10-16T03:22:42.277Z,0.00
2018-10-16T03:23:42.262Z,0.00
2018-10-16T03:24:42.208Z,0.00
2018-10-16T03:25:42.144Z,0.00
2018-10-16T03:26:42.110Z,0.00
2018-10-16T03:27:42.082Z,0.00
2018-10-16T03:28:42.066Z,0.00
2018-10-16T03:29:42.015Z,0.00
2018-10-16T03:30:41.950Z,0.00
2018-10-16T03:31:41.918Z,0.00
2018-10-16T03:32:41.973Z,0.00
2018-10-16T03:33:41.854Z,0.00
2018-10-16T03:34:41.807Z,0.00
2018-10-16T03:35:41.757Z,0.00
2018-10-16T03:36:41.711Z,0.00
2018-10-16T03:37:41.852Z,0.00
2018-10-16T03:38:41.649Z,0.00
2018-10-16T03:39:41.588Z,0.00
2018-10-16T03:40:41.568Z,0.00
2018-10-16T03:41:41.501Z,0.00
2018-10-16T03:42:41.489Z,0.00
2018-10-16T03:43:41.471Z,0.00
2018-10-16T03:44:41.406Z,0.00
2018-10-16T03:45:41.346Z,0.00
2018-10-16T03:46:41.316Z,0.00
2018-10-16T03:47:41.313Z,0.00
2018-10-16T03:48:41.229Z,0.00
2018-10-16T03:49:41.190Z,0.00
2018-10-16T03:50:41.160Z,0.00
2018-10-16T03:51:41.178Z,0.00
2018-10-16T03:52:41.074Z,0.00
2018-10-16T03:53:41.031Z,0.00
2018-10-16T03:54:41.004Z,0.00
2018-10-16T03:55:40.939Z,0.00
2018-10-16T03:56:40.905Z,0.00
2018-10-16T03:57:40.890Z,0.00
2018-10-16T03:58:40.825Z,0.00
2018-10-16T03:59:40.788Z,0.00
2018-10-16T04:00:40.766Z,0.00
2018-10-16T04:01:40.705Z,0.00
2018-10-16T04:02:40.687Z,0.00
2018-10-16T04:03:40.635Z,0.00
2018-10-16T04:04:40.616Z,0.00
2018-10-16T04:05:40.563Z,0.00
2018-10-16T04:06:40.561Z,0.00
2018-10-16T04:07:40.484Z,0.00
2018-10-16T04:08:40.432Z,0.00
2018-10-16T04:09:40.412Z,0.00
2018-10-16T04:10:40.342Z,0.00
2018-10-16T04:11:40.328Z,0.00
2018-10-16T04:12:40.272Z,0.00
2018-10-16T04:13:40.225Z,0.00
2018-10-16T04:14:40.197Z,0.00
2018-10-16T04:15:40.142Z,0.00
2018-10-16T04:16:40.095Z,0.00
2018-10-16T04:17:40.055Z,0.00
2018-10-16T04:18:40.008Z,0.00
2018-10-16T04:19:40.000Z,0.00
2018-10-16T04:20:39.932Z,0.00
2018-10-16T04:21:39.892Z,0.00
2018-10-16T04:22:39.924Z,0.00
2018-10-16T04:23:39.853Z,0.00
2018-10-16T04:24:39.776Z,0.00
2018-10-16T04:25:39.743Z,0.00
2018-10-16T04:26:39.700Z,0.00
2018-10-16T04:27:39.671Z,0.00
2018-10-16T04:28:39.644Z,0.00
2018-10-16T04:29:39.577Z,0.00
2018-10-16T04:30:39.532Z,0.00
2018-10-16T04:31:39.493Z,0.00
2018-10-16T04:32:39.468Z,0.00
2018-10-16T04:33:39.438Z,0.00
2018-10-16T04:34:39.399Z,0.00
2018-10-16T04:35:39.344Z,0.00
2018-10-16T04:36:39.302Z,0.00
2018-10-16T04:37:39.289Z,0.00
2018-10-16T04:38:39.239Z,0.00
2018-10-16T04:39:39.186Z,0.00
2018-10-16T04:40:39.156Z,0.00
2018-10-16T04:41:39.127Z,0.00
2018-10-16T04:42:39.071Z,0.00
2018-10-16T04:43:39.074Z,0.00
2018-10-16T04:44:38.987Z,0.00
2018-10-16T04:45:38.947Z,0.00
2018-10-16T04:46:38.964Z,0.00
2018-10-16T04:47:38.892Z,0.00
2018-10-16T04:48:38.806Z,0.00
2018-10-16T04:49:38.785Z,0.00
2018-10-16T04:50:38.730Z,0.00
2018-10-16T04:51:38.711Z,0.00
2018-10-16T04:52:38.647Z,0.00
2018-10-16T04:53:38.630Z,0.00
2018-10-16T04:54:38.566Z,0.00
2018-10-16T04:55:38.585Z,0.00
2018-10-16T04:56:38.488Z,0.00
2018-10-16T04:57:38.459Z,0.00
2018-10-16T04:58:38.400Z,0.00
2018-10-16T04:59:38.368Z,0.00
2018-10-16T05:00:38.320Z,0.00
2018-10-16T05:01:38.294Z,0.00
2018-10-16T05:02:38.238Z,0.00
2018-10-16T05:03:38.224Z,4.00
2018-10-16T05:04:38.231Z,4.00
2018-10-16T05:05:38.142Z,0.00
2018-10-16T05:06:38.081Z,4.00
2018-10-16T05:07:38.036Z,8.00
2018-10-16T05:08:37.998Z,4.00
2018-10-16T05:09:37.975Z,8.00
2018-10-16T05:10:37.935Z,8.00
2018-10-16T05:11:37.898Z,8.00
2018-10-16T05:12:37.858Z,12.00
2018-10-16T05:13:37.809Z,16.00
2018-10-16T05:14:37.771Z,16.00
2018-10-16T05:15:37.731Z,20.00
2018-10-16T05:16:37.697Z,28.00
2018-10-16T05:17:37.679Z,32.00
2018-10-16T05:18:37.612Z,40.00
2018-10-16T05:19:37.551Z,44.00
2018-10-16T05:20:37.517Z,56.00
2018-10-16T05:21:37.493Z,68.00
2018-10-16T05:22:37.446Z,76.00
2018-10-16T05:23:37.404Z,96.00
2018-10-16T05:24:37.355Z,108.00
2018-10-16T05:25:37.312Z,128.00
2018-10-16T05:26:37.296Z,148.00
2018-10-16T05:27:37.243Z,172.00
2018-10-16T05:28:37.233Z,196.00
2018-10-16T05:29:37.146Z,220.00
2018-10-16T05:30:37.130Z,252.00
2018-10-16T05:31:37.275Z,284.00
2018-10-16T05:32:37.053Z,316.00
2018-10-16T05:33:36.999Z,352.00
2018-10-16T05:34:36.963Z,388.00
2018-10-16T05:35:36.919Z,424.00
2018-10-16T05:36:36.870Z,464.00
2018-10-16T05:37:36.846Z,504.00
2018-10-16T05:38:36.802Z,548.00
2018-10-16T05:39:36.752Z,596.00
2018-10-16T05:40:36.712Z,644.00
2018-10-16T05:41:36.745Z,700.00
2018-10-16T05:42:36.669Z,752.00
2018-10-16T05:43:36.610Z,816.00
2018-10-16T05:44:36.560Z,876.00
2018-10-16T05:45:36.523Z,940.00
2018-10-16T05:46:36.470Z,1000.00
2018-10-16T05:47:36.442Z,1064.00
2018-10-16T05:48:36.404Z,1128.00
2018-10-16T05:49:36.388Z,1188.00
2018-10-16T05:50:36.310Z,1260.00
2018-10-16T05:51:36.287Z,1332.00
2018-10-16T05:52:36.234Z,1404.00
2018-10-16T05:53:36.196Z,1484.00
2018-10-16T05:54:36.150Z,1572.00
2018-10-16T05:55:36.133Z,1660.00
2018-10-16T05:56:36.075Z,1756.00
2018-10-16T05:57:36.037Z,1844.00
2018-10-16T05:58:35.998Z,1932.00
2018-10-16T05:59:35.977Z,2016.00
2018-10-16T06:00:35.909Z,2104.00
2018-10-16T06:01:35.872Z,2196.00
2018-10-16T06:02:35.900Z,2288.00
2018-10-16T06:03:35.815Z,2372.00
2018-10-16T06:04:35.754Z,2452.00
2018-10-16T06:05:35.767Z,2520.00
2018-10-16T06:06:35.715Z,2584.00
2018-10-16T06:07:35.654Z,2640.00
2018-10-16T06:08:35.598Z,2696.00
2018-10-16T06:09:35.558Z,2756.00
2018-10-16T06:10:35.526Z,2824.00
2018-10-16T06:11:35.473Z,2896.00
2018-10-16T06:12:35.417Z,2964.00
2018-10-16T06:13:35.403Z,3040.00
2018-10-16T06:14:35.348Z,3116.00
2018-10-16T06:15:35.320Z,3204.00
2018-10-16T06:16:35.273Z,3296.00
2018-10-16T06:17:35.260Z,3400.00
2018-10-16T06:18:35.214Z,3492.00
2018-10-16T06:19:35.183Z,3600.00
2018-10-16T06:20:35.110Z,3700.00
2018-10-16T06:21:35.060Z,3804.00
2018-10-16T06:22:35.028Z,3888.00
2018-10-16T06:23:34.998Z,3964.00
2018-10-16T06:24:35.067Z,4052.00
2018-10-16T06:25:34.912Z,4164.00
2018-10-16T06:26:34.987Z,4276.00
2018-10-16T06:27:34.876Z,4404.00
2018-10-16T06:28:34.793Z,4548.00
2018-10-16T06:29:34.764Z,4704.00
2018-10-16T06:30:34.711Z,4900.00
2018-10-16T06:31:34.665Z,5108.00
2018-10-16T06:32:34.637Z,5324.00
2018-10-16T06:33:34.589Z,5536.00
2018-10-16T06:34:34.537Z,5768.00
2018-10-16T06:35:34.526Z,6032.00
2018-10-16T06:36:34.472Z,6344.00
2018-10-16T06:37:34.436Z,6676.00
2018-10-16T06:38:34.395Z,6992.00
2018-10-16T06:39:34.354Z,7268.00
2018-10-16T06:40:34.368Z,7520.00
2018-10-16T06:41:34.310Z,7792.00
2018-10-16T06:42:34.231Z,8264.00
2018-10-16T06:43:34.190Z,8708.00
2018-10-16T06:44:34.168Z,9148.00
2018-10-16T06:45:34.108Z,9572.00
2018-10-16T06:46:34.189Z,9968.00
2018-10-16T06:47:34.070Z,10340.00
2018-10-16T06:48:34.247Z,10688.00
2018-10-16T06:49:33.950Z,11008.00
2018-10-16T06:50:33.922Z,11312.00
2018-10-16T06:51:33.879Z,11596.00
2018-10-16T06:52:33.836Z,11832.00
2018-10-16T06:53:33.793Z,12016.00
2018-10-16T06:54:33.765Z,12212.00
2018-10-16T06:55:33.743Z,12420.00
2018-10-16T06:56:33.683Z,12652.00
2018-10-16T06:57:33.663Z,12832.00
2018-10-16T06:58:33.597Z,12936.00
2018-10-16T06:59:33.572Z,12980.00
2018-10-16T07:00:33.528Z,12984.00
2018-10-16T07:01:33.490Z,12956.00
2018-10-16T07:02:33.447Z,12916.00
2018-10-16T07:03:33.408Z,12908.00
2018-10-16T07:04:33.364Z,12928.00
2018-10-16T07:05:33.333Z,12972.00
2018-10-16T07:06:33.317Z,13060.00
2018-10-16T07:07:33.244Z,13208.00
2018-10-16T07:08:33.233Z,13248.00
2018-10-16T07:09:33.168Z,13692.00
2018-10-16T07:10:33.140Z,14624.00
2018-10-16T07:11:33.089Z,16192.00
2018-10-16T07:12:33.075Z,17248.00
2018-10-16T07:13:33.016Z,16648.00
2018-10-16T07:14:32.981Z,16760.00
2018-10-16T07:15:32.966Z,16792.00
2018-10-16T07:16:32.923Z,14548.00
2018-10-16T07:17:32.872Z,14236.00
2018-10-16T07:18:32.832Z,14516.00
2018-10-16T07:19:32.797Z,16188.00
2018-10-16T07:20:32.754Z,15612.00
2018-10-16T07:21:32.761Z,16948.00
2018-10-16T07:22:32.684Z,19584.00
2018-10-16T07:23:32.674Z,17108.00
2018-10-16T07:24:32.602Z,17300.00
2018-10-16T07:25:32.597Z,19584.00
2018-10-16T07:26:32.554Z,18368.00
2018-10-16T07:27:32.511Z,19840.00
2018-10-16T07:28:32.463Z,18976.00
2018-10-16T07:29:32.427Z,14736.00
2018-10-16T07:30:32.420Z,13644.00
2018-10-16T07:31:32.372Z,13008.00
2018-10-16T07:32:32.344Z,13048.00
2018-10-16T07:33:32.288Z,14528.00
2018-10-16T07:34:32.253Z,14236.00
2018-10-16T07:35:32.222Z,13672.00
2018-10-16T07:36:32.190Z,13820.00
2018-10-16T07:37:32.152Z,13756.00
2018-10-16T07:38:32.205Z,13816.00
2018-10-16T07:39:32.075Z,13960.00
2018-10-16T07:40:32.046Z,14208.00
2018-10-16T07:41:32.020Z,14436.00
2018-10-16T07:42:31.987Z,14680.00
2018-10-16T07:43:31.933Z,15076.00
2018-10-16T07:44:31.899Z,15776.00
2018-10-16T07:45:31.872Z,16692.00
2018-10-16T07:46:31.858Z,21408.00
2018-10-16T07:47:31.806Z,19968.00
2018-10-16T07:48:31.850Z,20288.00
2018-10-16T07:49:31.727Z,18880.00
2018-10-16T07:50:31.722Z,21600.00
2018-10-16T07:51:31.687Z,20736.00
2018-10-16T07:52:31.615Z,20352.00
2018-10-16T07:53:31.627Z,19680.00
2018-10-16T07:54:31.584Z,20352.00
2018-10-16T07:55:31.520Z,20416.00
2018-10-16T07:56:31.486Z,21888.00
2018-10-16T07:57:31.466Z,24192.00
2018-10-16T07:58:31.454Z,27872.00
2018-10-16T07:59:31.384Z,28032.00
2018-10-16T08:00:31.352Z,30656.00
2018-10-16T08:01:31.308Z,27584.00
2018-10-16T08:02:31.301Z,32160.00
2018-10-16T08:03:31.254Z,40000.00
2018-10-16T08:04:31.284Z,37920.00
2018-10-16T08:05:31.193Z,33760.00
2018-10-16T08:06:31.156Z,33152.00
2018-10-16T08:07:31.162Z,33440.00
2018-10-16T08:08:31.174Z,30752.00
2018-10-16T08:09:31.072Z,27520.00
2018-10-16T08:10:31.048Z,30080.00
2018-10-16T08:11:31.019Z,30752.00
2018-10-16T08:12:30.945Z,27520.00
2018-10-16T08:13:30.919Z,31360.00
2018-10-16T08:14:30.885Z,32064.00
2018-10-16T08:15:30.862Z,32608.00
2018-10-16T08:16:30.829Z,31168.00
2018-10-16T08:17:30.801Z,32096.00
2018-10-16T08:18:30.761Z,40096.00
2018-10-16T08:19:30.752Z,47872.00
2018-10-16T08:20:30.703Z,49600.00
2018-10-16T08:21:30.678Z,41216.00
2018-10-16T08:22:30.648Z,35584.00
2018-10-16T08:23:30.614Z,40928.00
2018-10-16T08:24:30.585Z,42368.00
2018-10-16T08:25:30.553Z,40320.00
2018-10-16T08:26:30.529Z,41184.00
2018-10-16T08:27:30.501Z,43584.00
2018-10-16T08:28:30.467Z,40992.00
2018-10-16T08:29:30.434Z,42112.00
2018-10-16T08:30:30.470Z,43552.00
2018-10-16T08:31:30.392Z,39648.00
2018-10-16T08:32:30.356Z,43392.00
2018-10-16T08:33:30.324Z,44064.00
2018-10-16T08:34:30.340Z,45536.00
2018-10-16T08:35:30.266Z,52128.00
2018-10-16T08:36:30.403Z,46784.00
2018-10-16T08:37:30.236Z,53440.00
2018-10-16T08:38:30.202Z,54048.00
2018-10-16T08:39:30.157Z,49152.00
2018-10-16T08:40:30.149Z,44832.00
2018-10-16T08:41:30.117Z,44608.00
2018-10-16T08:42:30.084Z,53504.00
2018-10-16T08:43:30.065Z,58240.00
2018-10-16T08:44:30.041Z,58688.00
2018-10-16T08:45:30.003Z,57472.00
2018-10-16T08:46:29.992Z,56544.00
2018-10-16T08:47:29.999Z,61120.00
2018-10-16T08:48:29.942Z,60608.00
2018-10-16T08:49:29.918Z,59648.00
2018-10-16T08:50:29.897Z,60512.00
2018-10-16T08:51:29.880Z,63104.00
2018-10-16T08:52:29.845Z,65408.00
2018-10-16T08:53:29.846Z,59488.00
2018-10-16T08:54:29.813Z,50880.00
2018-10-16T08:55:29.791Z,51072.00
2018-10-16T08:56:29.771Z,57184.00
2018-10-16T08:57:29.754Z,59680.00
2018-10-16T08:58:29.727Z,68128.00
2018-10-16T08:59:29.700Z,68864.00
2018-10-16T09:00:29.691Z,72928.00
2018-10-16T09:01:29.699Z,72288.00
2018-10-16T09:02:29.652Z,66784.00
2018-10-16T09:03:29.620Z,68448.00
2018-10-16T09:04:29.652Z,73216.00
2018-10-16T09:05:29.579Z,71680.00
2018-10-16T09:06:29.595Z,71712.00
2018-10-16T09:07:29.556Z,72736.00
2018-10-16T09:08:29.522Z,72160.00
2018-10-16T09:09:29.509Z,74336.00
2018-10-16T09:10:29.485Z,74528.00
2018-10-16T09:11:29.469Z,69632.00
2018-10-16T09:12:29.445Z,71456.00
2018-10-16T09:13:29.445Z,62624.00
2018-10-16T09:14:29.407Z,68160.00
2018-10-16T09:15:29.387Z,68320.00
2018-10-16T09:16:29.401Z,67232.00
2018-10-16T09:17:29.349Z,61312.00
2018-10-16T09:18:29.326Z,64896.00
2018-10-16T09:19:29.316Z,64640.00
2018-10-16T09:20:29.314Z,55264.00
2018-10-16T09:21:29.278Z,65056.00
2018-10-16T09:22:29.267Z,61184.00
2018-10-16T09:23:29.278Z,61728.00
2018-10-16T09:24:29.247Z,56768.00
2018-10-16T09:25:29.205Z,59104.00
2018-10-16T09:26:29.191Z,46528.00
2018-10-16T09:27:29.164Z,46240.00
2018-10-16T09:28:29.159Z,55808.00
2018-10-16T09:29:29.142Z,46400.00
2018-10-16T09:30:29.133Z,40800.00
2018-10-16T09:31:29.093Z,40416.00
2018-10-16T09:32:29.074Z,41024.00
2018-10-16T09:33:29.039Z,49856.00
2018-10-16T09:34:29.039Z,53312.00
2018-10-16T09:35:29.037Z,44800.00
2018-10-16T09:36:28.993Z,61952.00
2018-10-16T09:37:28.999Z,69632.00
2018-10-16T09:38:28.951Z,50816.00
2018-10-16T09:39:28.942Z,56224.00
2018-10-16T09:40:28.911Z,65856.00
2018-10-16T09:41:28.886Z,60384.00
2018-10-16T09:42:28.863Z,72032.00
2018-10-16T09:43:28.851Z,61440.00
2018-10-16T09:44:28.823Z,69216.00
2018-10-16T09:45:28.799Z,68672.00
2018-10-16T09:46:28.781Z,44544.00
2018-10-16T09:47:28.762Z,38080.00
2018-10-16T09:48:28.746Z,35680.00
2018-10-16T09:49:28.733Z,33920.00
2018-10-16T09:50:28.696Z,32800.00
2018-10-16T09:51:28.682Z,32352.00
2018-10-16T09:52:28.654Z,34464.00
2018-10-16T09:53:28.624Z,33792.00
2018-10-16T09:54:28.628Z,29728.00
2018-10-16T09:55:28.595Z,27328.00
2018-10-16T09:56:28.564Z,24032.00
2018-10-16T09:57:28.544Z,22944.00
2018-10-16T09:58:28.529Z,22656.00
2018-10-16T09:59:28.520Z,22496.00
2018-10-16T10:00:28.464Z,22432.00
2018-10-16T10:01:28.452Z,22368.00
2018-10-16T10:02:28.420Z,22400.00
2018-10-16T10:03:28.403Z,22432.00
2018-10-16T10:04:28.384Z,22560.00
2018-10-16T10:05:28.371Z,22720.00
2018-10-16T10:06:28.331Z,22976.00
2018-10-16T10:07:28.308Z,23360.00
2018-10-16T10:08:28.286Z,23712.00
2018-10-16T10:09:28.273Z,24096.00
2018-10-16T10:10:28.226Z,24352.00
2018-10-16T10:11:28.264Z,24576.00
2018-10-16T10:12:28.185Z,24768.00
2018-10-16T10:13:28.149Z,24928.00
2018-10-16T10:14:28.114Z,25152.00
2018-10-16T10:15:28.092Z,25376.00
2018-10-16T10:16:28.068Z,25664.00
2018-10-16T10:17:28.057Z,26016.00
2018-10-16T10:18:28.009Z,26464.00
2018-10-16T10:19:27.987Z,27104.00
2018-10-16T10:20:27.983Z,27712.00
2018-10-16T10:21:27.941Z,28224.00
2018-10-16T10:22:27.933Z,28928.00
2018-10-16T10:23:27.921Z,28704.00
2018-10-16T10:24:27.846Z,29088.00
2018-10-16T10:25:27.835Z,30560.00
2018-10-16T10:26:27.798Z,29184.00
2018-10-16T10:27:27.784Z,29248.00
2018-10-16T10:28:27.756Z,29568.00
2018-10-16T10:29:27.782Z,34272.00
2018-10-16T10:30:27.688Z,29696.00
2018-10-16T10:31:27.696Z,29920.00
2018-10-16T10:32:27.625Z,29344.00
2018-10-16T10:33:27.605Z,30784.00
2018-10-16T10:34:27.594Z,31552.00
2018-10-16T10:35:27.584Z,26752.00
2018-10-16T10:36:27.525Z,25472.00
2018-10-16T10:37:27.490Z,24416.00
2018-10-16T10:38:27.469Z,23840.00
2018-10-16T10:39:27.433Z,23392.00
2018-10-16T10:40:27.401Z,23008.00
2018-10-16T10:41:27.374Z,22656.00
2018-10-16T10:42:27.357Z,22336.00
2018-10-16T10:43:27.315Z,22080.00
2018-10-16T10:44:27.290Z,21824.00
2018-10-16T10:45:27.250Z,21504.00
2018-10-16T10:46:27.231Z,21152.00
2018-10-16T10:47:27.198Z,20800.00
2018-10-16T10:48:27.166Z,20480.00
2018-10-16T10:49:27.140Z,20320.00
2018-10-16T10:50:27.288Z,20128.00
2018-10-16T10:51:27.373Z,20000.00
2018-10-16T10:52:27.042Z,19840.00
2018-10-16T10:53:27.027Z,19616.00
2018-10-16T10:54:26.992Z,19456.00
2018-10-16T10:55:26.976Z,19328.00
2018-10-16T10:56:26.951Z,19360.00
2018-10-16T10:57:26.920Z,19360.00
2018-10-16T10:58:26.881Z,19488.00
2018-10-16T10:59:26.849Z,19584.00
2018-10-16T11:00:26.829Z,19744.00
2018-10-16T11:01:26.781Z,19840.00
2018-10-16T11:02:26.759Z,19936.00
2018-10-16T11:03:26.855Z,20000.00
2018-10-16T11:04:26.727Z,19968.00
2018-10-16T11:05:26.693Z,19968.00
2018-10-16T11:06:26.648Z,20064.00
2018-10-16T11:07:26.641Z,20192.00
2018-10-16T11:08:26.595Z,20192.00
2018-10-16T11:09:26.546Z,20096.00
2018-10-16T11:10:26.517Z,20000.00
2018-10-16T11:11:26.492Z,19936.00
2018-10-16T11:12:26.460Z,19904.00
2018-10-16T11:13:26.435Z,19872.00
2018-10-16T11:14:26.405Z,19776.00
2018-10-16T11:15:26.377Z,19680.00
2018-10-16T11:16:26.337Z,19680.00
2018-10-16T11:17:26.315Z,19744.00
2018-10-16T11:18:26.279Z,20000.00
2018-10-16T11:19:26.317Z,20352.00
2018-10-16T11:20:26.227Z,20800.00
2018-10-16T11:21:26.188Z,21312.00
2018-10-16T11:22:26.155Z,21824.00
2018-10-16T11:23:26.130Z,22336.00
2018-10-16T11:24:26.126Z,22912.00
2018-10-16T11:25:26.073Z,23488.00
2018-10-16T11:26:26.047Z,24064.00
2018-10-16T11:27:26.026Z,24704.00
2018-10-16T11:28:25.988Z,25216.00
2018-10-16T11:29:25.954Z,25824.00
2018-10-16T11:30:25.994Z,26432.00
2018-10-16T11:31:25.905Z,27136.00
2018-10-16T11:32:25.871Z,27296.00
2018-10-16T11:33:25.830Z,27424.00
2018-10-16T11:34:25.816Z,27552.00
2018-10-16T11:35:25.776Z,27744.00
2018-10-16T11:36:25.739Z,27904.00
2018-10-16T11:37:25.711Z,28064.00
2018-10-16T11:38:25.681Z,28096.00
2018-10-16T11:39:25.643Z,27968.00
2018-10-16T11:40:25.612Z,27936.00
2018-10-16T11:41:25.578Z,27808.00
2018-10-16T11:42:25.552Z,27744.00
2018-10-16T11:43:25.525Z,27776.00
2018-10-16T11:44:25.517Z,27776.00
2018-10-16T11:45:25.461Z,27680.00
2018-10-16T11:46:25.431Z,27488.00
2018-10-16T11:47:25.457Z,27200.00
2018-10-16T11:48:25.394Z,26816.00
2018-10-16T11:49:25.334Z,26304.00
2018-10-16T11:50:25.308Z,25696.00
2018-10-16T11:51:25.284Z,25120.00
2018-10-16T11:52:25.267Z,24512.00
2018-10-16T11:53:25.224Z,23904.00
2018-10-16T11:54:25.197Z,23392.00
2018-10-16T11:55:25.192Z,22944.00
2018-10-16T11:56:25.161Z,22560.00
2018-10-16T11:57:25.112Z,22336.00
2018-10-16T11:58:25.078Z,22112.00
2018-10-16T11:59:25.121Z,21824.00
2018-10-16T12:00:25.023Z,21504.00
2018-10-16T12:01:24.995Z,20672.00
2018-10-16T12:02:24.963Z,19968.00
2018-10-16T12:03:24.924Z,19328.00
2018-10-16T12:04:24.886Z,18816.00
2018-10-16T12:05:24.865Z,18560.00
2018-10-16T12:06:24.838Z,18528.00
2018-10-16T12:07:24.806Z,18560.00
2018-10-16T12:08:24.778Z,18560.00
2018-10-16T12:09:24.761Z,18560.00
2018-10-16T12:10:24.702Z,18624.00
2018-10-16T12:11:24.683Z,18752.00
2018-10-16T12:12:24.647Z,18816.00
2018-10-16T12:13:24.635Z,18784.00
2018-10-16T12:14:24.603Z,18624.00
2018-10-16T12:15:24.564Z,18272.00
2018-10-16T12:16:24.545Z,17856.00
2018-10-16T12:17:24.503Z,17372.00
2018-10-16T12:18:24.471Z,17096.00
2018-10-16T12:19:24.460Z,16868.00
2018-10-16T12:20:24.414Z,16760.00
2018-10-16T12:21:24.377Z,16756.00
2018-10-16T12:22:24.344Z,16828.00
2018-10-16T12:23:24.353Z,16960.00
2018-10-16T12:24:24.290Z,17192.00
2018-10-16T12:25:24.271Z,17632.00